Alvordton, Ohio
Current Conditions -  °F | °C
As of 2:55 AM on Friday 31 Oct 2014 (Local Time) from KUSE Reporting Station
Overcast Overcast  
Wind Chill: 41°   Ceiling: 4900
Heat Index: 45°   Visibility: 10mi
Dew Point: 36°   Wind: 6mph
Humidity: 71%   Direction: 240°WSW
Pressure: 29.99"   Gusts: NA
Location:  41.67°N, 84.44°W
Report Text: KUSE 310655Z AUTO 24005KT 10SM BKN049 OVC080 07/02 A2999 RMK AO2
Loading
Personal Weather Stations






























Interactive Weather Map New forecast layout! Learn more

10-Day Weather Forecast

Advertisements
Track Severe Weather on mobile